This is the latest recevied weather packets stored in our database for station/object KI5MKI. If no packets are shown the sender has not sent any weather packets the latest 10 day(s).
| Time | Temp. | Humidity | Pressure | Rain* | Wind** | Luminosity | Snow |
|---|---|---|---|---|---|---|---|
| 1777476342 | 15.56° C | 86% | 1016.1 hPa | 0 mm | - | 61 W/m² | - |
| 1777475734 | 15.56° C | 86% | 1015.8 hPa | 0 mm | - | 115 W/m² | - |
| 1777474823 | 15.56° C | 88% | 1015.1 hPa | 0 mm | - | 240 W/m² | - |
| 1777470878 | 14.44° C | 91% | 1015.9 hPa | 0 mm | - | 29 W/m² | - |
| 1777469967 | 13.89° C | 91% | 1016 hPa | 0 mm | - | 31 W/m² | - |
| 1777469663 | 13.89° C | 91% | 1015.9 hPa | 0 mm | - | 27 W/m² | - |
| 1777469359 | 13.89° C | 91% | 1015.8 hPa | 0 mm | - | 33 W/m² | - |
| 1777468749 | 13.89° C | 91% | 1015.8 hPa | 0 mm | - | 29 W/m² | - |
| 1777468446 | 13.89° C | 90% | 1015.9 hPa | 0 mm | - | 27 W/m² | - |
| 1777468142 | 13.89° C | 90% | 1015.8 hPa | 0 mm | - | 20 W/m² | - |
| 1777467534 | 14.44° C | 91% | 1015.7 hPa | 0 mm | - | 21 W/m² | - |
| 1777466926 | 13.89° C | 91% | 1015.5 hPa | 0 mm | - | 18 W/m² | - |
| 1777466320 | 14.44° C | 90% | 1015.4 hPa | 0 mm | - | 9 W/m² | - |
| 1777466017 | 14.44° C | 90% | 1015.1 hPa | 0 mm | - | 12 W/m² | - |
| 1777465713 | 14.44° C | 89% | 1015 hPa | 0 mm | - | 12 W/m² | - |
| 1777465409 | 14.44° C | 88% | 1015.2 hPa | 0 mm | - | 8 W/m² | - |
| 1777465107 | 14.44° C | 87% | 1015.2 hPa | 0 mm | - | 7 W/m² | - |
| 1777464803 | 14.44° C | 87% | 1015.1 hPa | 0 mm | - | 6 W/m² | - |
| 1777464499 | 15° C | 86% | 1014.8 hPa | 0 mm | - | 6 W/m² | - |
| 1777464195 | 15° C | 85% | 1015 hPa | 0 mm | - | 4 W/m² | - |
| 1777463896 | 15° C | 84% | 1014.8 hPa | 0 mm | - | 2 W/m² | - |
| 1777463292 | 15.56° C | 82% | 1014.9 hPa | 0 mm | - | 2 W/m² | - |
| 1777462684 | 15.56° C | 81% | 1014.8 hPa | 0 mm | - | 0 W/m² | - |
| 1777462379 | 15.56° C | 80% | 1014.6 hPa | 0 mm | - | 0 W/m² | - |
| 1777462075 | 15.56° C | 80% | 1014.7 hPa | 0 mm | - | 0 W/m² | - |
* Rain latest hour (hover to see other rain measurements)
** Current wind speed in m/s (hover to see current wind gust speed)